Russell Municipal Airport
KRSL : now visible

Airfield :











YOU CAN JOIN US ON...

 
LOGIN :

Register | Disclaimer

   EN    FR    IT 

 









Legend :    VFR   Marginal VFR   IFR   Intensive IFR   Very Intensive IFR
Visi :
Ceiling :
>= 8 km
>= 3000ft
5 to 8 km
1000 to 3000 ft
1500m to 5 km
500 to 1000 ft
800 to 1500m
200 to 500 ft
< 800m
< 200 ft
Symbols :   Thunderstorms  Fog  Heavy snow  Heavy precipitations  Wind > 20 kt






- Airport Elevation : 1862 ft


KRSL - Russell Municipal

CURRENT METAR :
  • 152106Z AUTO 03007KT 9SM SCT024 OVC031 M04/M07 A2991 RMK AO2 T10441072

EXPIRED METARs :
  • 152053Z AUTO 04007KT 9SM BKN024 OVC029 M04/M07 A2991 RMK AO2 SLP153 60000 T10441072 58009
  • 151953Z AUTO 04007KT 10SM OVC026 M04/M07 A2992 RMK AO2 SLP154 T10441072
  • 151933Z AUTO 04007KT 9SM SCT009 OVC026 M05/M07 A2993 RMK AO2 T10501072
  • 151907Z AUTO 03006KT 10SM BKN009 BKN028 OVC039 M04/M07 A2994 RMK AO2 T10441072

TAF KRSL
Valid from the 15 at 20:00 until the 16 at 18:00 UTC


152009Z 1520/1618 03006KT P6SM OVC030
FM152300 02007KT P6SM BKN030
FM160100 02006KT P6SM BKN060
FM161000 VRB05KT P6SM VCSH OVC020
FM161300 34006KT P6SM BKN070



MET'MAP, your aeronautical weather chart ! - Copyright ORBIFLY December 2007 - Disclaimer

ORBIFLY MET'MAP TEAM :

Programming & Development : Alexandra Zaïnal
Concept & original design : Baudouin d'Aumeries
Assistance for programming : Marc-Olivier Méhu
Technical & hardware support : Manuel Goepfert

Contact : metmap@orbifly.com




SOURCES & CREDITS :

   NOAA       Earth
Advisory